Time;durP1;ratioP1;P1;durP2;ratioP2;P2;SDS_P1;SDS_P2;PMS_P1;PMS_P2;Temp;Humidity;BMP_temperature;BMP_pressure;BME280_temperature;BME280_humidity;BME280_pressure;Samples;Min_cycle;Max_cycle;Signal;HPM_P1;HPM_P2
2023/01/26 00:00:46;;;;;;;66.47;25.35;;;0.00;99.90;;;;;;5073894;28;20123;-67
2023/01/26 00:03:11;;;;;;;69.13;26.55;;;-0.10;99.90;;;;;;5073882;28;20162;-67
2023/01/26 00:05:37;;;;;;;68.03;25.77;;;0.00;99.90;;;;;;5073843;28;20123;-67
2023/01/26 00:08:04;;;;;;;66.10;25.02;;;0.10;99.90;;;;;;5073794;28;20501;-67
2023/01/26 00:10:29;;;;;;;63.42;25.30;;;0.00;99.90;;;;;;5073679;28;20566;-67
2023/01/26 00:12:55;;;;;;;53.25;21.90;;;0.00;99.90;;;;;;5073734;28;20128;-67
2023/01/26 00:15:20;;;;;;;49.58;21.35;;;0.10;99.90;;;;;;5073657;28;20040;-67
2023/01/26 00:17:46;;;;;;;56.33;22.65;;;0.10;99.90;;;;;;5073543;28;20059;-67
2023/01/26 00:20:12;;;;;;;44.10;21.17;;;0.10;99.90;;;;;;5073491;28;20124;-67
2023/01/26 00:22:37;;;;;;;51.75;20.65;;;0.00;99.90;;;;;;5073769;28;20045;-67
2023/01/26 00:25:03;;;;;;;48.13;20.98;;;0.10;99.90;;;;;;5073680;28;20400;-67
2023/01/26 00:27:31;;;;;;;58.03;22.33;;;0.10;99.90;;;;;;5074675;28;20044;-67
2023/01/26 00:29:57;;;;;;;58.40;21.67;;;0.00;99.90;;;;;;5073283;28;20045;-67
2023/01/26 00:32:22;;;;;;;51.25;21.52;;;0.00;99.90;;;;;;5073569;28;20044;-67
2023/01/26 00:34:48;;;;;;;54.30;21.60;;;0.00;99.90;;;;;;5072929;28;20120;-67
2023/01/26 00:37:14;;;;;;;55.92;22.60;;;0.00;99.90;;;;;;5073366;28;20048;-67
2023/01/26 00:39:39;;;;;;;59.67;23.25;;;0.10;99.90;;;;;;5073353;28;20068;-67
2023/01/26 00:42:05;;;;;;;58.00;23.17;;;0.10;99.90;;;;;;5074394;28;20504;-67
2023/01/26 00:44:31;;;;;;;62.75;23.85;;;0.10;99.90;;;;;;5073078;28;20119;-67
2023/01/26 00:46:56;;;;;;;56.88;23.38;;;0.10;99.90;;;;;;5073033;28;20044;-67
2023/01/26 00:49:22;;;;;;;66.07;24.10;;;0.00;99.90;;;;;;5072833;28;20056;-67
2023/01/26 00:51:48;;;;;;;63.92;23.85;;;0.10;99.90;;;;;;5072768;28;20051;-67
2023/01/26 00:54:13;;;;;;;65.13;24.67;;;0.10;99.90;;;;;;5072838;28;20067;-67
2023/01/26 00:56:39;;;;;;;62.42;23.23;;;0.10;99.90;;;;;;5072963;28;20044;-67
2023/01/26 00:59:05;;;;;;;65.95;25.73;;;0.00;99.90;;;;;;5072925;28;20032;-67
2023/01/26 01:01:31;;;;;;;74.15;24.50;;;0.20;99.90;;;;;;5072761;28;20036;-67
2023/01/26 01:03:56;;;;;;;62.72;24.40;;;0.10;99.90;;;;;;5073200;28;20037;-67
2023/01/26 01:06:22;;;;;;;66.30;24.25;;;0.20;99.90;;;;;;5072891;28;20043;-67
2023/01/26 01:08:48;;;;;;;67.60;24.38;;;0.10;99.90;;;;;;5072533;28;20566;-67
2023/01/26 01:11:14;;;;;;;55.97;23.58;;;0.20;99.90;;;;;;5072549;28;20040;-67
2023/01/26 01:13:40;;;;;;;56.35;22.67;;;0.10;99.90;;;;;;5072480;28;20044;-67
2023/01/26 01:16:07;;;;;;;67.82;25.10;;;0.10;99.90;;;;;;5073066;28;20041;-67
2023/01/26 01:18:33;;;;;;;64.05;23.35;;;0.20;99.90;;;;;;5072327;28;20128;-67
2023/01/26 01:20:59;;;;;;;64.13;24.08;;;0.10;99.90;;;;;;5072333;28;20060;-67
2023/01/26 01:23:28;;;;;;;55.60;21.50;;;0.10;99.90;;;;;;5072301;28;20085;-67
2023/01/26 01:25:58;;;;;;;61.75;23.40;;;0.20;99.90;;;;;;5072260;28;20043;-67
2023/01/26 01:28:24;;;;;;;60.85;23.45;;;0.10;99.90;;;;;;5072222;28;20037;-67
2023/01/26 01:30:49;;;;;;;57.92;23.38;;;0.30;99.90;;;;;;5072145;28;20047;-67
2023/01/26 01:33:15;;;;;;;53.65;21.58;;;0.30;99.90;;;;;;5072170;28;20045;-67
2023/01/26 01:35:40;;;;;;;61.38;22.58;;;0.30;99.90;;;;;;5072152;28;20042;-67
2023/01/26 01:38:06;;;;;;;51.60;21.02;;;0.20;99.90;;;;;;5072057;28;20063;-67
2023/01/26 01:40:31;;;;;;;52.67;21.30;;;0.20;99.90;;;;;;5073342;28;20033;-67
2023/01/26 01:42:57;;;;;;;62.25;22.73;;;0.30;99.90;;;;;;5073308;28;20502;-67
2023/01/26 01:45:26;;;;;;;47.97;20.33;;;0.20;99.90;;;;;;5071411;28;20074;-67
2023/01/26 01:48:02;;;;;;;62.00;22.40;;;0.30;99.90;;;;;;5071992;28;20413;-67
2023/01/26 01:50:35;;;;;;;49.08;20.48;;;0.20;99.90;;;;;;5055247;28;20048;-67
2023/01/26 01:53:01;;;;;;;;;;;0.30;99.90;;;;;;5072444;28;20085;-67
2023/01/26 01:55:28;;;;;;;60.83;21.02;;;0.30;99.90;;;;;;5071936;28;19917;-67
2023/01/26 01:57:57;;;;;;;52.47;20.65;;;0.30;99.90;;;;;;5071869;28;20072;-67
2023/01/26 02:00:23;;;;;;;53.55;21.08;;;0.20;99.90;;;;;;5073101;28;20508;-67
2023/01/26 02:03:10;;;;;;;58.83;22.30;;;0.30;99.90;;;;;;5072118;28;20055;-67
2023/01/26 02:05:54;;;;;;;63.25;22.70;;;0.30;99.90;;;;;;5072119;28;20111;-67
2023/01/26 02:08:24;;;;;;;49.00;20.33;;;0.30;99.90;;;;;;5071793;28;20044;-67
2023/01/26 02:10:53;;;;;;;52.78;20.60;;;0.20;99.90;;;;;;5071672;28;20045;-67
2023/01/26 02:13:21;;;;;;;52.72;20.42;;;0.30;99.90;;;;;;5071762;28;20078;-67
2023/01/26 02:15:47;;;;;;;54.53;21.27;;;0.40;99.90;;;;;;5071700;28;20051;-67
2023/01/26 02:18:13;;;;;;;49.30;19.27;;;0.30;99.90;;;;;;5071637;28;20044;-67
2023/01/26 02:20:46;;;;;;;57.45;20.80;;;0.30;99.90;;;;;;5072826;28;20035;-67
2023/01/26 02:23:48;;;;;;;45.70;18.45;;;0.30;99.90;;;;;;5071663;28;20048;-67
2023/01/26 02:26:22;;;;;;;56.10;19.52;;;0.40;99.90;;;;;;5071896;28;20047;-67
2023/01/26 02:28:48;;;;;;;;;;;0.40;99.90;;;;;;5071974;28;20261;-68
2023/01/26 02:31:14;;;;;;;37.40;16.70;;;0.40;99.90;;;;;;5071584;28;19960;-67
2023/01/26 02:33:40;;;;;;;42.38;18.08;;;0.40;99.90;;;;;;5071464;28;20052;-67
2023/01/26 02:36:09;;;;;;;52.33;18.75;;;0.50;99.90;;;;;;5071492;28;20049;-67
2023/01/26 02:38:52;;;;;;;42.05;18.25;;;0.40;99.90;;;;;;5071400;28;20558;-67
2023/01/26 02:42:37;;;;;;;48.53;19.33;;;0.50;99.90;;;;;;5071529;28;20231;-67
2023/01/26 02:44:08;;;;;;;53.58;19.08;;;0.40;99.90;;;;;;5071595;28;20041;-67
2023/01/26 02:46:34;;;;;;;41.38;18.23;;;0.50;99.90;;;;;;5071398;28;20045;-67
2023/01/26 02:51:43;;;;;;;43.75;18.10;;;0.40;99.90;;;;;;5071306;28;20497;-67
2023/01/26 02:55:21;;;;;;;39.90;17.15;;;0.50;99.90;;;;;;5054603;28;20033;-67
2023/01/26 02:56:54;;;;;;;34.65;16.08;;;0.50;99.90;;;;;;5072419;28;20123;-67
2023/01/26 02:59:20;;;;;;;45.63;18.08;;;0.60;99.90;;;;;;5074969;28;20124;-67
2023/01/26 03:01:49;;;;;;;44.42;17.30;;;0.50;99.90;;;;;;5075066;28;20043;-67
2023/01/26 03:04:15;;;;;;;41.88;16.65;;;0.60;99.90;;;;;;5074969;28;20036;-67
2023/01/26 03:06:40;;;;;;;47.03;17.85;;;0.50;99.90;;;;;;5074898;28;20059;-67
2023/01/26 03:09:06;;;;;;;38.22;16.35;;;0.50;99.90;;;;;;5074732;28;20047;-67
2023/01/26 03:11:40;;;;;;;52.38;18.52;;;0.60;99.90;;;;;;5074864;28;20035;-67
2023/01/26 03:14:07;;;;;;;44.38;17.80;;;0.50;99.90;;;;;;5074832;28;20120;-67
2023/01/26 03:16:33;;;;;;;38.88;16.45;;;0.70;99.90;;;;;;5074759;28;20041;-67
2023/01/26 03:27:26;;;;;;;40.03;15.95;;;0.70;99.90;;;;;;5074566;28;20414;-67
2023/01/26 03:29:51;;;;;;;43.30;15.55;;;0.70;99.90;;;;;;5074463;28;20047;-67
2023/01/26 03:32:17;;;;;;;43.83;16.27;;;0.70;99.90;;;;;;5074487;28;20048;-67
2023/01/26 03:34:43;;;;;;;47.58;17.35;;;0.70;99.90;;;;;;5074669;28;20066;-67
2023/01/26 03:37:09;;;;;;;33.85;14.80;;;0.70;99.90;;;;;;5074559;28;20378;-67
2023/01/26 03:59:07;;;;;;;30.10;14.05;;;0.80;99.90;;;;;;5036452;28;20549;-67
2023/01/26 04:01:38;;;;;;;34.42;13.65;;;0.90;99.90;;;;;;5053123;28;20529;-67
2023/01/26 04:09:35;;;;;;;37.58;14.15;;;1.00;99.90;;;;;;5035706;28;20041;-67
2023/01/26 04:12:02;;;;;;;33.13;13.93;;;0.90;99.90;;;;;;5036253;28;20525;-67
2023/01/26 04:22:44;;;;;;;40.05;14.80;;;0.90;99.90;;;;;;5036227;28;20457;-68
2023/01/26 04:25:16;;;;;;;30.60;14.27;;;0.90;99.90;;;;;;5036151;28;20383;-68
2023/01/26 04:27:43;;;;;;;28.08;12.88;;;0.90;99.90;;;;;;5036009;28;20053;-68
2023/01/26 04:30:11;;;;;;;36.40;13.95;;;1.00;99.90;;;;;;5052478;28;20051;-68
2023/01/26 04:32:37;;;;;;;39.28;14.50;;;1.00;99.90;;;;;;5035815;28;20128;-68
2023/01/26 04:35:05;;;;;;;39.78;14.65;;;1.00;99.90;;;;;;5059463;28;20135;-68
2023/01/26 04:37:31;;;;;;;35.70;13.75;;;1.10;99.90;;;;;;5073032;28;20390;-69
2023/01/26 04:39:57;;;;;;;28.02;13.05;;;1.10;99.90;;;;;;5073112;28;20047;-69
2023/01/26 04:42:23;;;;;;;37.42;14.00;;;1.10;99.90;;;;;;5073182;28;20041;-69
2023/01/26 04:44:50;;;;;;;33.90;14.10;;;1.10;99.90;;;;;;5073085;28;20458;-69
2023/01/26 04:47:16;;;;;;;40.33;15.32;;;1.10;99.90;;;;;;5073358;28;20044;-69
2023/01/26 04:49:42;;;;;;;29.73;13.57;;;1.10;99.90;;;;;;5074339;28;20516;-69
2023/01/26 04:52:07;;;;;;;32.58;14.35;;;1.20;99.90;;;;;;5073297;28;20052;-69
2023/01/26 04:54:33;;;;;;;26.55;13.40;;;1.20;99.90;;;;;;5072913;28;20624;-69
2023/01/26 04:56:59;;;;;;;30.55;14.15;;;1.10;99.90;;;;;;5072754;28;20047;-69
2023/01/26 04:59:24;;;;;;;29.23;13.82;;;1.20;99.90;;;;;;5072746;28;20390;-69
2023/01/26 05:01:50;;;;;;;37.05;14.52;;;1.10;99.90;;;;;;5072763;28;20040;-69
2023/01/26 05:04:15;;;;;;;30.35;14.43;;;1.20;99.90;;;;;;5072671;28;20037;-69
2023/01/26 05:06:41;;;;;;;30.80;14.57;;;1.20;99.90;;;;;;5072926;28;20087;-69
2023/01/26 05:09:07;;;;;;;34.00;14.20;;;1.10;99.90;;;;;;5072782;28;20048;-69
2023/01/26 05:11:33;;;;;;;30.02;14.40;;;1.10;99.90;;;;;;5072619;28;20082;-69
2023/01/26 05:13:58;;;;;;;40.35;14.85;;;1.10;99.90;;;;;;5072566;28;20040;-68
2023/01/26 05:16:24;;;;;;;32.75;14.57;;;1.20;99.90;;;;;;5072748;28;20085;-68
2023/01/26 05:18:49;;;;;;;34.15;14.55;;;1.20;99.90;;;;;;5072335;28;20039;-68
2023/01/26 05:21:15;;;;;;;44.65;16.08;;;1.20;99.90;;;;;;5071816;28;20123;-68
2023/01/26 05:23:41;;;;;;;29.98;14.80;;;1.20;99.90;;;;;;5072381;28;20048;-68
2023/01/26 05:26:07;;;;;;;46.58;17.05;;;1.20;99.90;;;;;;5073584;28;20032;-68
2023/01/26 05:28:33;;;;;;;38.08;15.57;;;1.20;99.90;;;;;;5072481;28;20485;-68
2023/01/26 05:30:59;;;;;;;42.47;16.35;;;1.20;99.90;;;;;;5072392;28;20044;-68
2023/01/26 05:33:25;;;;;;;32.00;15.27;;;1.30;99.90;;;;;;5072205;28;20539;-68
2023/01/26 05:35:51;;;;;;;43.85;16.95;;;1.30;99.90;;;;;;5072130;28;20043;-68
2023/01/26 05:38:17;;;;;;;40.92;16.85;;;1.20;99.90;;;;;;5072052;28;20120;-68
2023/01/26 05:40:43;;;;;;;49.63;16.77;;;1.30;99.90;;;;;;5072077;28;20076;-68
2023/01/26 05:43:09;;;;;;;39.30;15.82;;;1.30;99.90;;;;;;5072159;28;20072;-68
2023/01/26 05:45:35;;;;;;;32.85;15.10;;;1.40;99.90;;;;;;5072058;28;20066;-68
2023/01/26 05:48:01;;;;;;;40.40;17.23;;;1.30;99.90;;;;;;5072031;28;20044;-68
2023/01/26 05:50:27;;;;;;;36.08;15.63;;;1.30;99.90;;;;;;5071945;28;20156;-68
2023/01/26 05:52:53;;;;;;;41.33;17.55;;;1.40;99.90;;;;;;5072166;28;20051;-68
2023/01/26 05:55:18;;;;;;;38.42;16.88;;;1.40;99.90;;;;;;5071900;28;20488;-68
2023/01/26 05:57:44;;;;;;;52.13;18.02;;;1.40;99.90;;;;;;5071814;28;20470;-68
2023/01/26 06:00:11;;;;;;;38.65;16.88;;;1.40;99.90;;;;;;5071750;28;20105;-68
2023/01/26 06:02:37;;;;;;;47.55;18.08;;;1.40;99.90;;;;;;5071705;28;20459;-68
2023/01/26 06:05:04;;;;;;;36.58;16.65;;;1.60;99.90;;;;;;5071763;28;20041;-68
2023/01/26 06:07:29;;;;;;;51.35;17.17;;;1.50;99.90;;;;;;5072045;28;20067;-68
2023/01/26 06:09:55;;;;;;;47.22;17.20;;;1.60;99.90;;;;;;5071631;28;20485;-68
2023/01/26 06:12:21;;;;;;;57.80;18.17;;;1.40;99.90;;;;;;5071759;28;20169;-68
2023/01/26 06:14:47;;;;;;;58.88;18.50;;;1.50;99.90;;;;;;5071962;28;20055;-68
2023/01/26 06:17:14;;;;;;;48.53;17.25;;;1.60;99.90;;;;;;5071566;28;20041;-69
2023/01/26 06:19:40;;;;;;;59.90;18.30;;;1.50;99.90;;;;;;5071915;28;20123;-69
2023/01/26 06:22:10;;;;;;;37.65;16.77;;;1.50;99.90;;;;;;5071905;28;20193;-69
2023/01/26 06:24:35;;;;;;;39.05;16.23;;;1.60;99.90;;;;;;5071557;28;20485;-69
2023/01/26 06:27:02;;;;;;;50.65;17.38;;;1.60;99.90;;;;;;5071580;28;20044;-68
2023/01/26 06:29:28;;;;;;;65.28;19.42;;;1.50;99.90;;;;;;5072819;28;20169;-68
2023/01/26 06:31:54;;;;;;;49.67;17.13;;;1.60;99.90;;;;;;5072616;28;20500;-68
2023/01/26 06:34:20;;;;;;;44.63;17.25;;;1.60;99.90;;;;;;5075859;28;20033;-68
2023/01/26 06:36:45;;;;;;;43.80;16.73;;;1.70;99.90;;;;;;5075527;28;20043;-68
2023/01/26 06:39:12;;;;;;;46.78;15.88;;;1.60;99.90;;;;;;5075329;28;20040;-68
2023/01/26 06:41:38;;;;;;;44.28;16.08;;;1.60;99.90;;;;;;5075456;28;20048;-68
2023/01/26 06:44:04;;;;;;;32.75;14.85;;;1.60;99.90;;;;;;5075394;28;20041;-68
2023/01/26 06:46:30;;;;;;;42.38;16.33;;;1.60;99.90;;;;;;5075611;28;20044;-68
2023/01/26 06:48:55;;;;;;;43.95;15.88;;;1.60;99.90;;;;;;5075456;28;20401;-69
2023/01/26 06:51:41;;;;;;;46.03;16.70;;;1.60;99.90;;;;;;5075135;28;20128;-69
2023/01/26 06:54:09;;;;;;;44.50;17.35;;;1.60;99.90;;;;;;5075305;28;20048;-69
2023/01/26 06:56:35;;;;;;;59.42;19.23;;;1.60;99.90;;;;;;5075168;28;20048;-69
2023/01/26 06:59:01;;;;;;;38.60;16.02;;;1.60;99.90;;;;;;5074960;28;20037;-69
2023/01/26 07:01:29;;;;;;;39.47;16.58;;;1.70;99.90;;;;;;5075379;28;20045;-69
2023/01/26 07:03:54;;;;;;;31.77;15.35;;;1.70;99.90;;;;;;5075036;28;20119;-68
2023/01/26 07:06:20;;;;;;;36.50;15.45;;;1.70;99.90;;;;;;5074949;28;20115;-68
2023/01/26 07:08:46;;;;;;;48.03;16.88;;;1.70;99.90;;;;;;5074926;28;20074;-68
2023/01/26 07:11:12;;;;;;;34.75;15.25;;;1.80;99.90;;;;;;5074774;28;20036;-68
2023/01/26 07:13:38;;;;;;;61.80;19.10;;;1.80;99.90;;;;;;5074766;28;20041;-68
2023/01/26 07:16:07;;;;;;;59.22;17.92;;;1.70;99.90;;;;;;5074783;28;20132;-68
2023/01/26 07:18:33;;;;;;;46.42;16.88;;;1.70;99.90;;;;;;5074731;28;20041;-68
2023/01/26 07:21:14;;;;;;;46.83;17.63;;;1.80;99.90;;;;;;5074684;28;20203;-68
2023/01/26 07:23:39;;;;;;;46.08;17.48;;;1.70;99.90;;;;;;5076478;28;20044;-68
2023/01/26 07:26:05;;;;;;;43.92;16.15;;;1.80;99.90;;;;;;5075820;28;20405;-68
2023/01/26 07:28:33;;;;;;;47.58;17.80;;;1.80;99.90;;;;;;5074576;28;20044;-68
2023/01/26 07:31:00;;;;;;;45.80;17.05;;;1.80;99.90;;;;;;5074562;28;20045;-68
2023/01/26 07:33:27;;;;;;;40.00;15.70;;;1.80;99.90;;;;;;5074497;28;20090;-68
2023/01/26 07:35:54;;;;;;;39.35;15.70;;;1.90;99.90;;;;;;5075747;28;20039;-68
2023/01/26 07:38:19;;;;;;;50.92;16.55;;;1.80;99.90;;;;;;5074514;28;20040;-68
2023/01/26 07:40:45;;;;;;;47.42;16.15;;;1.90;99.90;;;;;;5074311;28;20566;-68
2023/01/26 07:43:11;;;;;;;58.35;17.60;;;1.80;99.90;;;;;;5074696;28;20040;-68
2023/01/26 07:45:37;;;;;;;51.38;17.08;;;1.80;99.90;;;;;;5074233;28;20123;-68
2023/01/26 07:48:02;;;;;;;49.10;16.90;;;1.80;99.90;;;;;;5074275;28;20127;-68
2023/01/26 07:50:28;;;;;;;58.20;17.65;;;1.80;99.90;;;;;;5074287;28;20218;-68
2023/01/26 07:52:53;;;;;;;59.58;18.77;;;1.80;99.90;;;;;;5074172;28;20036;-68
2023/01/26 07:55:20;;;;;;;51.75;17.02;;;1.90;99.90;;;;;;5074131;28;20055;-68
2023/01/26 07:57:49;;;;;;;74.53;20.38;;;1.80;99.90;;;;;;5074194;28;20036;-68
2023/01/26 08:00:16;;;;;;;49.90;17.42;;;1.80;99.90;;;;;;5073977;28;20044;-69
2023/01/26 08:02:41;;;;;;;65.40;18.02;;;1.80;99.90;;;;;;5074267;28;20033;-68
2023/01/26 08:05:07;;;;;;;53.65;17.48;;;1.80;99.90;;;;;;5073931;28;20040;-69
2023/01/26 08:07:33;;;;;;;62.15;18.65;;;1.90;99.90;;;;;;5074141;28;20493;-69
2023/01/26 08:09:59;;;;;;;91.22;20.58;;;1.80;99.90;;;;;;5073779;28;20045;-69
2023/01/26 08:12:24;;;;;;;66.57;18.13;;;1.80;99.90;;;;;;5073819;28;20040;-69
2023/01/26 08:14:50;;;;;;;84.30;19.55;;;1.80;99.90;;;;;;5073751;28;20443;-69
2023/01/26 08:17:16;;;;;;;130.55;22.20;;;1.80;99.90;;;;;;5073636;28;20044;-69
2023/01/26 08:19:43;;;;;;;78.63;19.60;;;1.90;99.90;;;;;;5073567;28;20414;-69
2023/01/26 08:22:08;;;;;;;72.40;18.80;;;1.80;99.90;;;;;;5073834;28;20053;-69
2023/01/26 08:24:34;;;;;;;104.80;20.77;;;1.90;99.90;;;;;;5073902;28;20446;-69
2023/01/26 08:27:00;;;;;;;62.42;18.35;;;1.90;99.90;;;;;;5074774;28;20432;-68
2023/01/26 08:29:25;;;;;;;87.72;19.45;;;1.80;99.90;;;;;;5073455;28;20040;-68
2023/01/26 08:31:51;;;;;;;116.65;20.83;;;1.80;99.90;;;;;;5073728;28;20076;-68
2023/01/26 08:34:16;;;;;;;69.07;18.50;;;1.70;99.90;;;;;;5073453;28;20527;-68
2023/01/26 08:36:42;;;;;;;86.78;21.35;;;1.80;99.90;;;;;;5073365;28;20044;-68
2023/01/26 08:39:07;;;;;;;102.32;20.73;;;1.70;99.90;;;;;;5073107;28;20045;-69
2023/01/26 08:41:33;;;;;;;100.75;22.20;;;1.80;99.90;;;;;;5073495;28;20097;-69
2023/01/26 08:43:59;;;;;;;100.18;20.13;;;1.70;99.90;;;;;;5073405;28;20397;-69
2023/01/26 08:46:25;;;;;;;155.70;23.30;;;1.70;99.90;;;;;;5073142;28;20486;-69
2023/01/26 08:48:51;;;;;;;113.13;21.20;;;1.80;99.90;;;;;;5072978;28;20101;-69
2023/01/26 08:51:17;;;;;;;123.43;21.55;;;1.90;99.90;;;;;;5073131;28;20098;-69
2023/01/26 08:53:43;;;;;;;77.15;18.75;;;1.90;99.90;;;;;;5072999;28;20562;-69
2023/01/26 08:56:11;;;;;;;104.07;19.73;;;1.90;99.90;;;;;;5072738;28;20047;-69
2023/01/26 08:58:37;;;;;;;156.98;21.83;;;2.00;99.90;;;;;;5072883;28;20082;-69
2023/01/26 09:01:09;;;;;;;162.15;21.58;;;2.00;99.90;;;;;;5073192;28;20223;-69
2023/01/26 09:03:35;;;;;;;169.60;21.58;;;2.20;99.90;;;;;;5072772;28;20076;-69
2023/01/26 09:06:03;;;;;;;91.18;18.80;;;2.10;99.90;;;;;;5072735;28;20070;-68
2023/01/26 09:08:29;;;;;;;168.50;26.23;;;2.10;99.90;;;;;;5072961;28;20036;-68
2023/01/26 09:10:55;;;;;;;109.53;24.13;;;2.20;99.90;;;;;;5073870;28;20520;-68
2023/01/26 09:13:20;;;;;;;43.85;16.95;;;2.20;99.90;;;;;;5072580;28;20040;-68
2023/01/26 09:15:46;;;;;;;54.67;20.02;;;2.30;99.90;;;;;;5072540;28;20417;-68
2023/01/26 09:18:12;;;;;;;44.10;17.63;;;2.20;99.90;;;;;;5072565;28;20040;-69
2023/01/26 09:20:38;;;;;;;53.20;18.45;;;2.30;99.90;;;;;;5072406;28;20493;-69
2023/01/26 09:23:04;;;;;;;37.70;14.18;;;2.40;99.90;;;;;;5072599;28;20033;-69
2023/01/26 09:25:29;;;;;;;41.42;14.93;;;2.50;99.90;;;;;;5072686;28;20044;-69
2023/01/26 09:27:56;;;;;;;44.03;15.57;;;2.50;99.90;;;;;;5072669;28;20428;-69
2023/01/26 09:30:23;;;;;;;48.47;17.77;;;2.60;99.90;;;;;;5055822;28;20036;-69
2023/01/26 09:32:49;;;;;;;34.00;13.77;;;2.70;99.90;;;;;;5072245;28;20060;-69
2023/01/26 09:35:15;;;;;;;51.67;14.73;;;2.70;99.90;;;;;;5072228;28;20119;-68
2023/01/26 09:37:44;;;;;;;42.58;12.10;;;2.70;99.90;;;;;;5072104;28;20123;-69
2023/01/26 09:40:21;;;;;;;51.38;12.13;;;2.90;99.90;;;;;;5072096;28;20037;-69
2023/01/26 09:43:27;;;;;;;49.97;11.77;;;2.90;99.90;;;;;;5072441;28;20037;-69
2023/01/26 09:46:30;;;;;;;51.58;11.25;;;3.00;99.90;;;;;;5072365;28;20048;-69
2023/01/26 09:49:12;;;;;;;39.30;10.23;;;3.10;99.90;;;;;;5072031;28;20052;-69
2023/01/26 09:51:42;;;;;;;53.40;14.50;;;3.20;99.90;;;;;;5071995;28;20044;-69
2023/01/26 09:54:42;;;;;;;52.92;13.13;;;3.20;99.90;;;;;;5071955;28;20086;-69
2023/01/26 09:57:15;;;;;;;44.90;10.30;;;3.40;99.90;;;;;;5072178;28;20127;-70
2023/01/26 09:59:55;;;;;;;50.05;11.65;;;3.50;99.90;;;;;;5072151;28;20036;-70
2023/01/26 10:02:43;;;;;;;52.15;12.05;;;3.60;99.90;;;;;;5071950;28;20051;-70
2023/01/26 10:05:26;;;;;;;56.65;14.43;;;3.60;99.90;;;;;;5071876;28;20413;-70
2023/01/26 10:07:52;;;;;;;59.20;12.63;;;3.70;99.90;;;;;;5072113;28;20052;-70
2023/01/26 10:10:33;;;;;;;46.47;10.98;;;3.80;99.90;;;;;;5071670;28;20138;-70
2023/01/26 10:12:59;;;;;;;48.70;11.02;;;3.90;99.90;;;;;;5071841;28;20036;-70
2023/01/26 10:15:32;;;;;;;45.42;9.63;;;4.00;99.90;;;;;;5071751;28;20154;-70
2023/01/26 10:18:05;;;;;;;45.92;8.73;;;4.10;99.90;;;;;;5071686;28;20049;-70
2023/01/26 10:20:37;;;;;;;46.90;8.48;;;4.30;99.90;;;;;;5072889;28;20501;-70
2023/01/26 10:23:15;;;;;;;45.90;7.25;;;4.40;99.90;;;;;;5071936;28;20040;-70
2023/01/26 10:25:45;;;;;;;44.90;7.78;;;4.50;99.90;;;;;;5071943;28;20046;-74
2023/01/26 10:28:34;;;;;;;52.13;6.47;;;4.60;99.90;;;;;;5071594;28;20040;-74
2023/01/26 10:31:02;;;;;;;42.55;5.63;;;4.90;99.90;;;;;;5071799;28;20063;-70
2023/01/26 10:33:34;;;;;;;41.55;6.80;;;4.90;99.90;;;;;;5071842;28;20141;-70
2023/01/26 10:36:01;;;;;;;42.25;6.35;;;5.10;99.90;;;;;;5071613;28;20048;-70
2023/01/26 10:38:32;;;;;;;51.13;6.45;;;5.30;99.90;;;;;;5071359;28;20044;-70
2023/01/26 10:41:03;;;;;;;40.30;6.63;;;5.40;99.90;;;;;;5071458;28;20040;-70
2023/01/26 10:43:33;;;;;;;38.10;4.90;;;5.50;99.90;;;;;;5071501;28;20075;-70
2023/01/26 10:46:02;;;;;;;40.53;5.50;;;5.80;99.90;;;;;;5071763;28;20056;-70
2023/01/26 10:48:28;;;;;;;32.42;4.93;;;5.90;99.90;;;;;;5071720;28;20044;-70
2023/01/26 10:50:54;;;;;;;41.53;5.82;;;6.00;99.90;;;;;;5071212;28;20052;-70
2023/01/26 10:53:27;;;;;;;36.38;4.97;;;6.10;99.90;;;;;;5054659;28;20041;-71
2023/01/26 10:56:12;;;;;;;47.03;6.18;;;6.10;99.90;;;;;;5054577;28;20039;-71
2023/01/26 10:58:48;;;;;;;34.25;5.50;;;6.10;99.90;;;;;;5071407;28;20098;-70
2023/01/26 11:01:17;;;;;;;35.45;5.45;;;6.10;99.90;;;;;;5071548;28;20037;-71
2023/01/26 11:04:11;;;;;;;41.25;5.65;;;6.30;99.90;;;;;;5071291;28;20045;-70
2023/01/26 11:06:36;;;;;;;32.95;5.38;;;6.40;99.90;;;;;;5071516;28;20040;-71
2023/01/26 11:09:25;;;;;;;42.17;5.55;;;6.40;99.90;;;;;;5071160;28;20052;-71
2023/01/26 11:12:17;;;;;;;40.08;6.25;;;6.40;99.90;;;;;;5071252;28;20506;-70
2023/01/26 11:15:00;;;;;;;42.25;7.82;;;6.40;99.90;;;;;;5071221;28;20079;-70
2023/01/26 11:17:29;;;;;;;33.70;5.30;;;6.50;99.90;;;;;;5071646;28;20080;-70
2023/01/26 11:20:06;;;;;;;33.17;5.03;;;6.70;99.90;;;;;;5075024;28;20547;-70
2023/01/26 11:23:06;;;;;;;35.90;4.45;;;6.90;99.90;;;;;;5074768;28;20211;-70
2023/01/26 11:25:56;;;;;;;28.13;4.15;;;7.20;99.90;;;;;;5074734;28;20037;-70
2023/01/26 11:28:25;;;;;;;30.60;4.40;;;7.40;99.90;;;;;;5074944;28;20489;-70
2023/01/26 11:31:08;;;;;;;29.35;4.53;;;7.90;99.90;;;;;;5074561;28;20045;-70
2023/01/26 11:33:48;;;;;;;30.10;4.85;;;9.20;99.90;;;;;;5074611;28;20044;-75
2023/01/26 11:36:34;;;;;;;24.77;3.92;;;10.80;99.90;;;;;;5074534;28;20386;-70
2023/01/26 11:39:09;;;;;;;31.67;4.72;;;12.40;99.90;;;;;;5074334;28;20044;-70
2023/01/26 11:41:49;;;;;;;21.05;4.15;;;13.50;99.90;;;;;;5074457;28;20481;-70
2023/01/26 11:44:51;;;;;;;26.98;4.88;;;13.90;99.90;;;;;;5074392;28;20033;-70
2023/01/26 11:47:39;;;;;;;27.92;4.88;;;13.90;99.90;;;;;;5074351;28;20033;-70
2023/01/26 11:50:25;;;;;;;24.63;4.05;;;14.20;99.90;;;;;;5074311;28;20477;-70
2023/01/26 11:53:16;;;;;;;19.02;3.75;;;14.00;99.90;;;;;;5074238;28;20408;-70
2023/01/26 11:55:53;;;;;;;17.65;3.70;;;13.50;99.90;;;;;;5074470;28;20074;-71
2023/01/26 11:58:41;;;;;;;21.10;3.28;;;13.60;99.90;;;;;;5073981;28;20235;-71
2023/01/26 12:01:19;;;;;;;16.90;3.55;;;13.60;99.90;;;;;;5075517;28;20048;-71
2023/01/26 12:03:50;;;;;;;24.88;3.70;;;13.50;99.90;;;;;;5074082;28;20048;-70
2023/01/26 12:06:19;;;;;;;19.05;3.40;;;13.50;99.90;;;;;;5073979;28;20063;-71
2023/01/26 12:09:01;;;;;;;25.85;3.78;;;13.80;99.90;;;;;;5074052;28;20097;-71
2023/01/26 12:12:04;;;;;;;21.13;3.33;;;13.70;99.90;;;;;;5073926;28;20063;-71
2023/01/26 12:14:55;;;;;;;25.05;3.63;;;13.20;99.90;;;;;;5073886;28;20060;-71
2023/01/26 12:17:42;;;;;;;19.13;3.22;;;12.60;99.90;;;;;;5074075;28;20049;-71
2023/01/26 12:20:17;;;;;;;17.42;2.88;;;11.90;99.90;;;;;;5073663;28;20040;-71
2023/01/26 12:23:07;;;;;;;13.50;2.45;;;11.30;99.90;;;;;;5057178;28;20513;-71
2023/01/26 12:25:35;;;;;;;18.23;3.72;;;10.70;99.90;;;;;;5073872;28;20037;-70
2023/01/26 12:28:05;;;;;;;18.58;3.53;;;10.20;99.90;;;;;;5073531;28;20043;-70
2023/01/26 12:30:42;;;;;;;14.65;2.63;;;9.90;99.90;;;;;;5073089;28;20051;-70
2023/01/26 12:33:09;;;;;;;21.05;3.08;;;9.50;99.90;;;;;;5074978;28;20040;-70
2023/01/26 12:35:47;;;;;;;14.52;2.58;;;9.30;99.90;;;;;;5073346;28;20119;-70
2023/01/26 12:38:17;;;;;;;15.55;2.28;;;9.10;99.90;;;;;;5073647;28;20515;-70
2023/01/26 12:41:21;;;;;;;18.50;2.65;;;8.90;99.90;;;;;;5074431;28;20040;-70
2023/01/26 12:44:07;;;;;;;;;;;8.80;99.90;;;;;;5071653;28;20509;-71
2023/01/26 12:46:37;;;;;;;15.15;2.63;;;8.50;99.90;;;;;;5072424;28;20337;-70
2023/01/26 12:49:28;;;;;;;18.02;2.58;;;8.40;99.90;;;;;;5073038;28;20041;-71
2023/01/26 12:52:00;;;;;;;25.55;3.03;;;8.30;99.90;;;;;;5072804;28;20115;-71
2023/01/26 12:54:59;;;;;;;16.05;2.35;;;8.30;99.90;;;;;;5072989;28;20069;-71
2023/01/26 12:57:33;;;;;;;16.33;2.65;;;8.20;99.90;;;;;;5073152;28;20048;-71
2023/01/26 13:00:03;;;;;;;;;;;8.20;99.90;;;;;;5073294;28;20033;-71
2023/01/26 13:02:32;;;;;;;16.73;2.55;;;8.20;99.90;;;;;;5072835;28;19923;-71
2023/01/26 13:05:00;;;;;;;17.65;2.78;;;8.40;99.90;;;;;;5073076;28;20115;-71
2023/01/26 13:07:33;;;;;;;17.60;2.92;;;8.40;99.90;;;;;;5072718;28;20158;-71
2023/01/26 13:10:14;;;;;;;13.90;2.80;;;8.60;99.90;;;;;;5072576;28;20048;-71
2023/01/26 13:12:45;;;;;;;19.92;3.30;;;8.70;99.90;;;;;;5072711;28;20106;-71
2023/01/26 13:15:15;;;;;;;23.05;4.68;;;8.70;99.90;;;;;;5072593;28;20048;-71
2023/01/26 13:17:49;;;;;;;22.58;5.43;;;8.50;99.90;;;;;;5072743;28;20044;-71
2023/01/26 13:20:40;;;;;;;17.58;3.65;;;8.50;99.90;;;;;;5055823;28;20043;-71
2023/01/26 13:23:43;;;;;;;22.92;3.80;;;8.40;99.90;;;;;;5072482;28;20102;-71
2023/01/26 13:26:24;;;;;;;16.77;2.30;;;8.40;99.90;;;;;;5072376;28;20040;-71
2023/01/26 13:28:51;;;;;;;21.08;2.78;;;8.70;99.90;;;;;;5072318;28;20127;-71
2023/01/26 13:31:32;;;;;;;18.48;2.47;;;8.70;99.90;;;;;;5072288;28;20146;-71
2023/01/26 13:34:01;;;;;;;12.32;1.90;;;8.60;99.90;;;;;;5072259;28;20040;-71
2023/01/26 13:36:31;;;;;;;14.10;2.30;;;8.50;99.90;;;;;;5072497;28;20052;-71
2023/01/26 13:39:09;;;;;;;16.17;2.47;;;8.40;99.90;;;;;;5072151;28;20120;-71
2023/01/26 13:41:46;;;;;;;12.93;2.13;;;8.30;99.90;;;;;;5071396;28;20072;-71